RJAZ(METAR)
10/04 16:00
RJAZ 040700Z 05012KT 9999 SCT006 BKN012 BKN050 22/20 Q1009 RMK
A2982=
戻る
トップページへ戻る
IMOC Co,.Ltd.